Buckhorn, New Mexico
Current Conditions -  °F | °C
As of 7:55 AM on Thursday 30 Oct 2014 (Local Time) from KSVC Reporting Station
Clear Clear  
Wind Chill: 44°   Ceiling: Unl
Heat Index: 46°   Visibility: 10mi
Dew Point: 32°   Wind: 6mph
Humidity: 57%   Direction: 350°N
Pressure: 30.29"   Gusts: NA
Location:  33.03°N, 108.71°W
Report Text: KSVC 301355Z AUTO 35005KT 10SM CLR 08/00 A3029 RMK AO2
Loading
Personal Weather Stations






























Interactive Weather Map New forecast layout! Learn more

10-Day Weather Forecast

Advertisements
Track Severe Weather on mobile